Terminal Aerodrome Forecast
Issued by NWS

Home | Current Version | Previous Version | Text Only | Print | Product List | Glossary On
Versions: 1 2 3 4 5 6 7 8 9 10 11 12 13 14 15 16 17 18 19 20 21
000
FTUS46 KPDT 301500 AAC
TAFDLS
TAF AMD
KDLS 301556Z 3016/3112 00000KT 4SM -RA BR FEW025 OVC090
      TEMPO 3016/3017 2SM -RA BR SCT025 OVC090
     FM301800 VRB03KT 5SM -RA BR SCT025 BKN030
     FM302100 VRB03KT 6SM BR VCSH BKN030 OVC100
     FM310100 30004KT 3SM -RA BR OVC025
     FM310600 34004KT 2SM RA BR OVC020=

USA.gov is the U.S. government's official web portal to all federal, state and local government web resources and services.